sensor_id;sensor_type;location;lat;lon;timestamp;P1;durP1;ratioP1;P2;durP2;ratioP2
21521;SDS011;10922;45.572;10.002;2023-02-22T00:00:55;147.17;;;93.77;;
21521;SDS011;10922;45.572;10.002;2023-02-22T00:03:26;147.00;;;94.93;;
21521;SDS011;10922;45.572;10.002;2023-02-22T00:06:03;142.68;;;93.38;;
21521;SDS011;10922;45.572;10.002;2023-02-22T00:08:31;152.23;;;96.70;;
21521;SDS011;10922;45.572;10.002;2023-02-22T00:10:58;149.50;;;96.43;;
21521;SDS011;10922;45.572;10.002;2023-02-22T00:13:25;147.32;;;96.35;;
21521;SDS011;10922;45.572;10.002;2023-02-22T00:15:55;151.93;;;98.18;;
21521;SDS011;10922;45.572;10.002;2023-02-22T00:18:21;150.75;;;95.78;;
21521;SDS011;10922;45.572;10.002;2023-02-22T00:20:47;145.82;;;96.32;;
21521;SDS011;10922;45.572;10.002;2023-02-22T00:23:17;148.60;;;96.13;;
21521;SDS011;10922;45.572;10.002;2023-02-22T00:25:45;146.15;;;96.43;;
21521;SDS011;10922;45.572;10.002;2023-02-22T00:28:12;143.55;;;92.68;;
21521;SDS011;10922;45.572;10.002;2023-02-22T00:30:39;146.18;;;95.70;;
21521;SDS011;10922;45.572;10.002;2023-02-22T00:33:07;144.63;;;93.47;;
21521;SDS011;10922;45.572;10.002;2023-02-22T00:35:34;151.30;;;94.82;;
21521;SDS011;10922;45.572;10.002;2023-02-22T00:38:00;143.33;;;93.23;;
21521;SDS011;10922;45.572;10.002;2023-02-22T00:40:31;152.65;;;96.40;;
21521;SDS011;10922;45.572;10.002;2023-02-22T00:42:59;139.52;;;91.40;;
21521;SDS011;10922;45.572;10.002;2023-02-22T00:45:26;146.05;;;94.78;;
21521;SDS011;10922;45.572;10.002;2023-02-22T00:47:53;144.93;;;95.85;;
21521;SDS011;10922;45.572;10.002;2023-02-22T00:50:19;143.63;;;94.20;;
21521;SDS011;10922;45.572;10.002;2023-02-22T00:52:46;144.55;;;94.63;;
21521;SDS011;10922;45.572;10.002;2023-02-22T00:55:19;144.40;;;96.17;;
21521;SDS011;10922;45.572;10.002;2023-02-22T00:57:47;143.40;;;93.32;;
21521;SDS011;10922;45.572;10.002;2023-02-22T01:00:18;144.90;;;94.32;;
21521;SDS011;10922;45.572;10.002;2023-02-22T01:02:46;149.65;;;96.38;;
21521;SDS011;10922;45.572;10.002;2023-02-22T01:05:15;143.75;;;93.50;;
21521;SDS011;10922;45.572;10.002;2023-02-22T01:07:43;147.00;;;94.20;;
21521;SDS011;10922;45.572;10.002;2023-02-22T01:10:08;144.43;;;94.78;;
21521;SDS011;10922;45.572;10.002;2023-02-22T01:12:35;140.13;;;91.78;;
21521;SDS011;10922;45.572;10.002;2023-02-22T01:15:02;142.02;;;94.13;;
21521;SDS011;10922;45.572;10.002;2023-02-22T01:17:28;146.70;;;93.73;;
21521;SDS011;10922;45.572;10.002;2023-02-22T01:19:54;146.95;;;95.40;;
21521;SDS011;10922;45.572;10.002;2023-02-22T01:22:20;146.80;;;94.13;;
21521;SDS011;10922;45.572;10.002;2023-02-22T01:24:47;145.02;;;94.88;;
21521;SDS011;10922;45.572;10.002;2023-02-22T01:27:13;148.30;;;93.97;;
21521;SDS011;10922;45.572;10.002;2023-02-22T01:29:39;145.25;;;93.68;;
21521;SDS011;10922;45.572;10.002;2023-02-22T01:32:06;145.18;;;92.15;;
21521;SDS011;10922;45.572;10.002;2023-02-22T01:34:33;143.45;;;93.38;;
21521;SDS011;10922;45.572;10.002;2023-02-22T01:36:59;140.32;;;92.15;;
21521;SDS011;10922;45.572;10.002;2023-02-22T01:39:25;141.65;;;92.97;;
21521;SDS011;10922;45.572;10.002;2023-02-22T01:41:51;145.80;;;93.75;;
21521;SDS011;10922;45.572;10.002;2023-02-22T01:46:56;143.40;;;94.10;;
21521;SDS011;10922;45.572;10.002;2023-02-22T01:49:26;144.07;;;95.15;;
21521;SDS011;10922;45.572;10.002;2023-02-22T01:51:57;153.18;;;97.07;;
21521;SDS011;10922;45.572;10.002;2023-02-22T01:54:30;147.27;;;96.18;;
21521;SDS011;10922;45.572;10.002;2023-02-22T01:57:04;149.15;;;96.53;;
21521;SDS011;10922;45.572;10.002;2023-02-22T01:59:32;148.15;;;94.40;;
21521;SDS011;10922;45.572;10.002;2023-02-22T02:02:00;149.65;;;96.05;;
21521;SDS011;10922;45.572;10.002;2023-02-22T02:04:28;142.20;;;92.90;;
21521;SDS011;10922;45.572;10.002;2023-02-22T02:06:57;143.37;;;95.00;;
21521;SDS011;10922;45.572;10.002;2023-02-22T02:09:34;146.02;;;93.95;;
21521;SDS011;10922;45.572;10.002;2023-02-22T02:12:38;147.02;;;93.18;;
21521;SDS011;10922;45.572;10.002;2023-02-22T02:15:22;141.27;;;91.90;;
21521;SDS011;10922;45.572;10.002;2023-02-22T02:17:53;141.07;;;91.72;;
21521;SDS011;10922;45.572;10.002;2023-02-22T02:37:00;133.82;;;87.18;;
21521;SDS011;10922;45.572;10.002;2023-02-22T02:42:43;136.77;;;87.88;;
21521;SDS011;10922;45.572;10.002;2023-02-22T02:45:22;140.30;;;86.43;;
21521;SDS011;10922;45.572;10.002;2023-02-22T02:47:59;136.13;;;87.53;;
21521;SDS011;10922;45.572;10.002;2023-02-22T02:50:36;129.00;;;82.53;;
21521;SDS011;10922;45.572;10.002;2023-02-22T02:53:12;137.05;;;86.32;;
21521;SDS011;10922;45.572;10.002;2023-02-22T02:55:41;141.50;;;87.67;;
21521;SDS011;10922;45.572;10.002;2023-02-22T02:58:07;136.80;;;86.53;;
21521;SDS011;10922;45.572;10.002;2023-02-22T03:00:36;136.47;;;86.20;;
21521;SDS011;10922;45.572;10.002;2023-02-22T03:11:10;128.65;;;81.93;;
21521;SDS011;10922;45.572;10.002;2023-02-22T03:13:52;130.60;;;82.85;;
21521;SDS011;10922;45.572;10.002;2023-02-22T03:21:59;134.90;;;83.60;;
21521;SDS011;10922;45.572;10.002;2023-02-22T03:24:44;131.48;;;83.10;;
21521;SDS011;10922;45.572;10.002;2023-02-22T03:27:22;133.50;;;83.43;;
21521;SDS011;10922;45.572;10.002;2023-02-22T03:29:53;132.90;;;83.60;;
21521;SDS011;10922;45.572;10.002;2023-02-22T03:32:24;131.25;;;83.22;;
21521;SDS011;10922;45.572;10.002;2023-02-22T03:34:58;137.88;;;84.00;;
21521;SDS011;10922;45.572;10.002;2023-02-22T03:37:34;137.73;;;85.30;;
21521;SDS011;10922;45.572;10.002;2023-02-22T03:40:04;133.73;;;85.53;;
21521;SDS011;10922;45.572;10.002;2023-02-22T03:42:39;139.45;;;88.43;;
21521;SDS011;10922;45.572;10.002;2023-02-22T03:45:10;137.55;;;87.35;;
21521;SDS011;10922;45.572;10.002;2023-02-22T03:47:44;142.67;;;88.60;;
21521;SDS011;10922;45.572;10.002;2023-02-22T03:50:17;145.95;;;89.43;;
21521;SDS011;10922;45.572;10.002;2023-02-22T03:52:46;143.20;;;89.18;;
21521;SDS011;10922;45.572;10.002;2023-02-22T03:55:12;140.77;;;87.47;;
21521;SDS011;10922;45.572;10.002;2023-02-22T03:57:42;143.00;;;90.30;;
21521;SDS011;10922;45.572;10.002;2023-02-22T04:00:13;139.63;;;88.38;;
21521;SDS011;10922;45.572;10.002;2023-02-22T04:02:43;136.32;;;86.18;;
21521;SDS011;10922;45.572;10.002;2023-02-22T04:05:09;140.38;;;86.03;;
21521;SDS011;10922;45.572;10.002;2023-02-22T04:07:34;140.13;;;86.27;;
21521;SDS011;10922;45.572;10.002;2023-02-22T04:10:00;136.53;;;85.40;;
21521;SDS011;10922;45.572;10.002;2023-02-22T04:12:27;133.50;;;82.78;;
21521;SDS011;10922;45.572;10.002;2023-02-22T04:14:53;134.82;;;84.57;;
21521;SDS011;10922;45.572;10.002;2023-02-22T04:17:18;139.13;;;85.70;;
21521;SDS011;10922;45.572;10.002;2023-02-22T04:19:44;138.97;;;85.90;;
21521;SDS011;10922;45.572;10.002;2023-02-22T04:22:10;138.97;;;86.57;;
21521;SDS011;10922;45.572;10.002;2023-02-22T04:24:36;146.60;;;86.82;;
21521;SDS011;10922;45.572;10.002;2023-02-22T04:27:02;142.90;;;88.53;;
21521;SDS011;10922;45.572;10.002;2023-02-22T04:29:27;136.50;;;87.43;;
21521;SDS011;10922;45.572;10.002;2023-02-22T04:31:54;134.70;;;86.88;;
21521;SDS011;10922;45.572;10.002;2023-02-22T04:34:19;136.40;;;85.43;;
21521;SDS011;10922;45.572;10.002;2023-02-22T04:36:45;138.35;;;86.03;;
21521;SDS011;10922;45.572;10.002;2023-02-22T04:39:11;142.02;;;86.35;;
21521;SDS011;10922;45.572;10.002;2023-02-22T04:41:37;141.63;;;87.70;;
21521;SDS011;10922;45.572;10.002;2023-02-22T04:44:03;137.33;;;84.80;;
21521;SDS011;10922;45.572;10.002;2023-02-22T04:46:28;139.48;;;84.63;;
21521;SDS011;10922;45.572;10.002;2023-02-22T04:48:55;135.18;;;81.38;;
21521;SDS011;10922;45.572;10.002;2023-02-22T04:51:22;133.00;;;81.20;;
21521;SDS011;10922;45.572;10.002;2023-02-22T04:53:48;134.05;;;81.55;;
21521;SDS011;10922;45.572;10.002;2023-02-22T04:56:16;131.90;;;80.80;;
21521;SDS011;10922;45.572;10.002;2023-02-22T04:58:42;133.02;;;80.28;;
21521;SDS011;10922;45.572;10.002;2023-02-22T05:01:08;128.63;;;78.80;;
21521;SDS011;10922;45.572;10.002;2023-02-22T05:03:36;129.80;;;78.78;;
21521;SDS011;10922;45.572;10.002;2023-02-22T05:06:02;125.75;;;78.60;;
21521;SDS011;10922;45.572;10.002;2023-02-22T05:08:28;129.45;;;77.95;;
21521;SDS011;10922;45.572;10.002;2023-02-22T05:10:53;129.80;;;78.80;;
21521;SDS011;10922;45.572;10.002;2023-02-22T05:13:19;125.23;;;76.50;;
21521;SDS011;10922;45.572;10.002;2023-02-22T05:15:45;125.83;;;76.57;;
21521;SDS011;10922;45.572;10.002;2023-02-22T05:18:11;123.63;;;76.22;;
21521;SDS011;10922;45.572;10.002;2023-02-22T05:20:41;120.27;;;73.50;;
21521;SDS011;10922;45.572;10.002;2023-02-22T05:23:06;119.97;;;74.10;;
21521;SDS011;10922;45.572;10.002;2023-02-22T05:25:32;119.70;;;75.00;;
21521;SDS011;10922;45.572;10.002;2023-02-22T05:28:06;124.35;;;75.60;;
21521;SDS011;10922;45.572;10.002;2023-02-22T05:30:35;123.70;;;74.25;;
21521;SDS011;10922;45.572;10.002;2023-02-22T05:33:03;120.03;;;73.57;;
21521;SDS011;10922;45.572;10.002;2023-02-22T05:35:29;123.17;;;74.97;;
21521;SDS011;10922;45.572;10.002;2023-02-22T05:37:55;124.67;;;76.03;;
21521;SDS011;10922;45.572;10.002;2023-02-22T05:40:22;121.80;;;74.38;;
21521;SDS011;10922;45.572;10.002;2023-02-22T05:42:50;124.28;;;75.00;;
21521;SDS011;10922;45.572;10.002;2023-02-22T05:45:18;120.28;;;74.88;;
21521;SDS011;10922;45.572;10.002;2023-02-22T05:47:45;123.28;;;75.18;;
21521;SDS011;10922;45.572;10.002;2023-02-22T05:50:10;126.93;;;78.13;;
21521;SDS011;10922;45.572;10.002;2023-02-22T05:52:36;118.93;;;73.82;;
21521;SDS011;10922;45.572;10.002;2023-02-22T05:55:05;120.22;;;73.97;;
21521;SDS011;10922;45.572;10.002;2023-02-22T05:57:32;123.13;;;75.72;;
21521;SDS011;10922;45.572;10.002;2023-02-22T05:59:58;126.97;;;78.10;;
21521;SDS011;10922;45.572;10.002;2023-02-22T06:02:24;128.68;;;80.20;;
21521;SDS011;10922;45.572;10.002;2023-02-22T06:04:49;124.20;;;76.50;;
21521;SDS011;10922;45.572;10.002;2023-02-22T06:07:15;128.40;;;77.43;;
21521;SDS011;10922;45.572;10.002;2023-02-22T06:09:40;127.97;;;76.33;;
21521;SDS011;10922;45.572;10.002;2023-02-22T06:12:06;122.32;;;75.47;;
21521;SDS011;10922;45.572;10.002;2023-02-22T06:14:32;123.17;;;75.10;;
21521;SDS011;10922;45.572;10.002;2023-02-22T06:16:58;121.63;;;74.65;;
21521;SDS011;10922;45.572;10.002;2023-02-22T06:19:25;121.28;;;74.20;;
21521;SDS011;10922;45.572;10.002;2023-02-22T06:21:54;121.43;;;74.45;;
21521;SDS011;10922;45.572;10.002;2023-02-22T06:24:21;125.90;;;74.68;;
21521;SDS011;10922;45.572;10.002;2023-02-22T06:26:53;128.25;;;77.45;;
21521;SDS011;10922;45.572;10.002;2023-02-22T06:29:24;126.30;;;74.80;;
21521;SDS011;10922;45.572;10.002;2023-02-22T06:31:50;121.70;;;74.35;;
21521;SDS011;10922;45.572;10.002;2023-02-22T06:34:17;124.57;;;77.30;;
21521;SDS011;10922;45.572;10.002;2023-02-22T06:36:43;124.50;;;75.55;;
21521;SDS011;10922;45.572;10.002;2023-02-22T06:39:12;129.20;;;77.53;;
21521;SDS011;10922;45.572;10.002;2023-02-22T06:41:40;122.97;;;74.93;;
21521;SDS011;10922;45.572;10.002;2023-02-22T06:44:06;127.68;;;76.53;;
21521;SDS011;10922;45.572;10.002;2023-02-22T06:46:32;122.67;;;75.30;;
21521;SDS011;10922;45.572;10.002;2023-02-22T06:48:59;125.10;;;75.93;;
21521;SDS011;10922;45.572;10.002;2023-02-22T06:51:28;124.13;;;75.33;;
21521;SDS011;10922;45.572;10.002;2023-02-22T06:53:54;121.97;;;74.53;;
21521;SDS011;10922;45.572;10.002;2023-02-22T06:56:20;121.05;;;74.82;;
21521;SDS011;10922;45.572;10.002;2023-02-22T06:58:45;120.97;;;74.07;;
21521;SDS011;10922;45.572;10.002;2023-02-22T07:01:11;121.97;;;74.00;;
21521;SDS011;10922;45.572;10.002;2023-02-22T07:03:37;129.82;;;77.55;;
21521;SDS011;10922;45.572;10.002;2023-02-22T07:06:03;126.53;;;76.43;;
21521;SDS011;10922;45.572;10.002;2023-02-22T07:08:30;125.27;;;74.97;;
21521;SDS011;10922;45.572;10.002;2023-02-22T07:10:56;128.07;;;76.43;;
21521;SDS011;10922;45.572;10.002;2023-02-22T07:13:21;129.18;;;78.10;;
21521;SDS011;10922;45.572;10.002;2023-02-22T07:15:47;127.47;;;77.38;;
21521;SDS011;10922;45.572;10.002;2023-02-22T07:18:13;127.85;;;76.47;;
21521;SDS011;10922;45.572;10.002;2023-02-22T07:20:40;126.30;;;77.97;;
21521;SDS011;10922;45.572;10.002;2023-02-22T07:23:06;123.65;;;75.97;;
21521;SDS011;10922;45.572;10.002;2023-02-22T07:25:31;128.73;;;77.10;;
21521;SDS011;10922;45.572;10.002;2023-02-22T07:27:57;130.37;;;77.93;;
21521;SDS011;10922;45.572;10.002;2023-02-22T07:30:25;124.03;;;76.15;;
21521;SDS011;10922;45.572;10.002;2023-02-22T07:32:57;128.75;;;77.28;;
21521;SDS011;10922;45.572;10.002;2023-02-22T07:37:50;121.25;;;74.57;;
21521;SDS011;10922;45.572;10.002;2023-02-22T07:40:17;124.18;;;75.28;;
21521;SDS011;10922;45.572;10.002;2023-02-22T07:42:53;125.18;;;75.53;;
21521;SDS011;10922;45.572;10.002;2023-02-22T07:45:19;122.55;;;76.25;;
21521;SDS011;10922;45.572;10.002;2023-02-22T07:47:48;127.72;;;77.63;;
21521;SDS011;10922;45.572;10.002;2023-02-22T07:50:14;123.80;;;76.27;;
21521;SDS011;10922;45.572;10.002;2023-02-22T07:52:47;127.80;;;77.47;;
21521;SDS011;10922;45.572;10.002;2023-02-22T07:55:15;125.70;;;77.15;;
21521;SDS011;10922;45.572;10.002;2023-02-22T07:57:42;127.13;;;76.20;;
21521;SDS011;10922;45.572;10.002;2023-02-22T08:00:10;124.50;;;76.05;;
21521;SDS011;10922;45.572;10.002;2023-02-22T08:02:38;124.38;;;76.85;;
21521;SDS011;10922;45.572;10.002;2023-02-22T08:05:05;125.80;;;76.55;;
21521;SDS011;10922;45.572;10.002;2023-02-22T08:07:32;126.13;;;76.80;;
21521;SDS011;10922;45.572;10.002;2023-02-22T08:09:58;121.07;;;75.00;;
21521;SDS011;10922;45.572;10.002;2023-02-22T08:12:23;126.78;;;75.72;;
21521;SDS011;10922;45.572;10.002;2023-02-22T08:14:49;126.13;;;76.65;;
21521;SDS011;10922;45.572;10.002;2023-02-22T08:17:15;127.37;;;77.93;;
21521;SDS011;10922;45.572;10.002;2023-02-22T08:19:40;128.53;;;78.87;;
21521;SDS011;10922;45.572;10.002;2023-02-22T08:22:06;124.77;;;76.03;;
21521;SDS011;10922;45.572;10.002;2023-02-22T08:24:31;125.73;;;76.10;;
21521;SDS011;10922;45.572;10.002;2023-02-22T08:26:57;124.77;;;76.70;;
21521;SDS011;10922;45.572;10.002;2023-02-22T08:29:23;125.07;;;76.70;;
21521;SDS011;10922;45.572;10.002;2023-02-22T08:31:51;128.30;;;76.53;;
21521;SDS011;10922;45.572;10.002;2023-02-22T08:34:18;124.15;;;76.82;;
21521;SDS011;10922;45.572;10.002;2023-02-22T08:36:44;124.18;;;76.43;;
21521;SDS011;10922;45.572;10.002;2023-02-22T08:39:09;122.07;;;75.82;;
21521;SDS011;10922;45.572;10.002;2023-02-22T08:41:35;123.82;;;77.03;;
21521;SDS011;10922;45.572;10.002;2023-02-22T08:44:01;127.10;;;77.15;;
21521;SDS011;10922;45.572;10.002;2023-02-22T08:46:27;121.80;;;73.63;;
21521;SDS011;10922;45.572;10.002;2023-02-22T08:48:53;125.78;;;76.88;;
21521;SDS011;10922;45.572;10.002;2023-02-22T08:51:19;121.32;;;74.40;;
21521;SDS011;10922;45.572;10.002;2023-02-22T08:53:45;130.20;;;76.05;;
21521;SDS011;10922;45.572;10.002;2023-02-22T08:56:10;122.10;;;76.07;;
21521;SDS011;10922;45.572;10.002;2023-02-22T08:58:36;122.70;;;74.10;;
21521;SDS011;10922;45.572;10.002;2023-02-22T09:01:02;116.38;;;68.95;;
21521;SDS011;10922;45.572;10.002;2023-02-22T09:03:28;109.20;;;66.07;;
21521;SDS011;10922;45.572;10.002;2023-02-22T09:05:53;115.00;;;70.33;;
21521;SDS011;10922;45.572;10.002;2023-02-22T09:08:19;113.93;;;67.93;;
21521;SDS011;10922;45.572;10.002;2023-02-22T09:10:45;104.05;;;62.00;;
21521;SDS011;10922;45.572;10.002;2023-02-22T09:13:11;106.10;;;64.93;;
21521;SDS011;10922;45.572;10.002;2023-02-22T09:15:37;113.67;;;66.87;;
21521;SDS011;10922;45.572;10.002;2023-02-22T09:18:04;115.55;;;69.43;;
21521;SDS011;10922;45.572;10.002;2023-02-22T09:20:32;107.32;;;65.03;;
21521;SDS011;10922;45.572;10.002;2023-02-22T09:22:59;115.65;;;69.82;;
21521;SDS011;10922;45.572;10.002;2023-02-22T09:25:27;115.22;;;70.43;;
21521;SDS011;10922;45.572;10.002;2023-02-22T09:27:53;109.55;;;65.65;;
21521;SDS011;10922;45.572;10.002;2023-02-22T09:30:24;111.03;;;68.57;;
21521;SDS011;10922;45.572;10.002;2023-02-22T09:32:52;109.87;;;64.80;;
21521;SDS011;10922;45.572;10.002;2023-02-22T09:35:21;108.95;;;67.05;;
21521;SDS011;10922;45.572;10.002;2023-02-22T09:37:57;112.10;;;68.63;;
21521;SDS011;10922;45.572;10.002;2023-02-22T09:40:29;109.03;;;66.60;;
21521;SDS011;10922;45.572;10.002;2023-02-22T09:51:18;113.03;;;67.57;;
21521;SDS011;10922;45.572;10.002;2023-02-22T09:53:46;111.28;;;67.95;;
21521;SDS011;10922;45.572;10.002;2023-02-22T09:56:15;113.03;;;68.00;;
21521;SDS011;10922;45.572;10.002;2023-02-22T09:58:46;111.32;;;68.53;;
21521;SDS011;10922;45.572;10.002;2023-02-22T10:01:27;107.73;;;65.90;;
21521;SDS011;10922;45.572;10.002;2023-02-22T10:05:01;115.40;;;68.65;;
21521;SDS011;10922;45.572;10.002;2023-02-22T10:07:25;115.00;;;70.13;;
21521;SDS011;10922;45.572;10.002;2023-02-22T10:09:57;112.90;;;68.78;;
21521;SDS011;10922;45.572;10.002;2023-02-22T10:20:53;115.28;;;71.25;;
21521;SDS011;10922;45.572;10.002;2023-02-22T10:26:12;119.67;;;71.00;;
21521;SDS011;10922;45.572;10.002;2023-02-22T10:31:26;116.97;;;70.80;;
21521;SDS011;10922;45.572;10.002;2023-02-22T10:34:02;115.10;;;68.70;;
21521;SDS011;10922;45.572;10.002;2023-02-22T10:36:39;116.22;;;70.00;;
21521;SDS011;10922;45.572;10.002;2023-02-22T10:39:50;113.45;;;69.07;;
21521;SDS011;10922;45.572;10.002;2023-02-22T10:42:00;109.53;;;66.78;;
21521;SDS011;10922;45.572;10.002;2023-02-22T10:44:33;116.72;;;70.32;;
21521;SDS011;10922;45.572;10.002;2023-02-22T10:46:59;113.28;;;70.28;;
21521;SDS011;10922;45.572;10.002;2023-02-22T10:49:29;116.33;;;70.47;;
21521;SDS011;10922;45.572;10.002;2023-02-22T10:52:03;115.67;;;71.27;;
21521;SDS011;10922;45.572;10.002;2023-02-22T10:54:44;115.65;;;70.63;;
21521;SDS011;10922;45.572;10.002;2023-02-22T10:57:12;110.32;;;66.78;;
21521;SDS011;10922;45.572;10.002;2023-02-22T10:59:38;112.20;;;68.23;;
21521;SDS011;10922;45.572;10.002;2023-02-22T11:04:55;115.30;;;70.67;;
21521;SDS011;10922;45.572;10.002;2023-02-22T11:07:23;114.15;;;68.50;;
21521;SDS011;10922;45.572;10.002;2023-02-22T11:10:04;115.35;;;69.78;;
21521;SDS011;10922;45.572;10.002;2023-02-22T11:12:34;116.32;;;68.97;;
21521;SDS011;10922;45.572;10.002;2023-02-22T11:17:44;115.43;;;69.80;;
21521;SDS011;10922;45.572;10.002;2023-02-22T11:20:21;116.25;;;70.65;;
21521;SDS011;10922;45.572;10.002;2023-02-22T11:22:53;117.43;;;71.87;;
21521;SDS011;10922;45.572;10.002;2023-02-22T11:25:32;116.88;;;71.95;;
21521;SDS011;10922;45.572;10.002;2023-02-22T11:28:08;152.45;;;74.65;;
21521;SDS011;10922;45.572;10.002;2023-02-22T11:30:41;113.97;;;71.68;;
21521;SDS011;10922;45.572;10.002;2023-02-22T11:38:21;118.28;;;73.53;;
21521;SDS011;10922;45.572;10.002;2023-02-22T11:41:06;113.40;;;69.45;;
21521;SDS011;10922;45.572;10.002;2023-02-22T11:43:42;120.72;;;72.53;;
21521;SDS011;10922;45.572;10.002;2023-02-22T11:48:38;118.53;;;71.90;;
21521;SDS011;10922;45.572;10.002;2023-02-22T11:51:15;112.35;;;70.00;;
21521;SDS011;10922;45.572;10.002;2023-02-22T11:57:03;120.38;;;73.40;;
21521;SDS011;10922;45.572;10.002;2023-02-22T12:08:13;116.43;;;71.57;;
21521;SDS011;10922;45.572;10.002;2023-02-22T12:11:10;114.30;;;70.35;;
21521;SDS011;10922;45.572;10.002;2023-02-22T12:14:03;113.32;;;70.57;;
21521;SDS011;10922;45.572;10.002;2023-02-22T12:19:50;107.55;;;66.85;;
21521;SDS011;10922;45.572;10.002;2023-02-22T12:25:02;107.03;;;67.88;;
21521;SDS011;10922;45.572;10.002;2023-02-22T12:33:20;108.80;;;68.80;;
21521;SDS011;10922;45.572;10.002;2023-02-22T12:35:52;109.55;;;68.35;;
21521;SDS011;10922;45.572;10.002;2023-02-22T12:43:29;102.77;;;63.83;;
21521;SDS011;10922;45.572;10.002;2023-02-22T12:45:59;105.82;;;68.45;;
21521;SDS011;10922;45.572;10.002;2023-02-22T12:59:16;107.72;;;67.00;;
21521;SDS011;10922;45.572;10.002;2023-02-22T13:01:50;106.57;;;65.70;;
21521;SDS011;10922;45.572;10.002;2023-02-22T13:04:23;110.45;;;68.43;;
21521;SDS011;10922;45.572;10.002;2023-02-22T13:12:37;104.70;;;65.03;;
21521;SDS011;10922;45.572;10.002;2023-02-22T13:23:10;110.63;;;68.13;;
21521;SDS011;10922;45.572;10.002;2023-02-22T13:28:17;107.28;;;66.38;;
21521;SDS011;10922;45.572;10.002;2023-02-22T13:37:04;104.50;;;64.72;;
21521;SDS011;10922;45.572;10.002;2023-02-22T13:47:49;101.25;;;64.15;;
21521;SDS011;10922;45.572;10.002;2023-02-22T13:53:35;97.35;;;62.40;;
21521;SDS011;10922;45.572;10.002;2023-02-22T13:56:20;98.70;;;63.15;;
21521;SDS011;10922;45.572;10.002;2023-02-22T13:58:54;98.07;;;62.20;;
21521;SDS011;10922;45.572;10.002;2023-02-22T14:01:37;99.15;;;61.30;;
21521;SDS011;10922;45.572;10.002;2023-02-22T14:04:21;98.53;;;61.60;;
21521;SDS011;10922;45.572;10.002;2023-02-22T14:06:50;100.40;;;62.42;;
21521;SDS011;10922;45.572;10.002;2023-02-22T14:09:16;95.72;;;60.47;;
21521;SDS011;10922;45.572;10.002;2023-02-22T14:15:07;100.47;;;62.75;;
21521;SDS011;10922;45.572;10.002;2023-02-22T14:17:38;99.70;;;62.80;;
21521;SDS011;10922;45.572;10.002;2023-02-22T14:22:41;102.70;;;64.20;;
21521;SDS011;10922;45.572;10.002;2023-02-22T14:27:57;101.55;;;63.47;;
21521;SDS011;10922;45.572;10.002;2023-02-22T14:30:25;101.38;;;63.17;;
21521;SDS011;10922;45.572;10.002;2023-02-22T14:32:52;100.47;;;61.53;;
21521;SDS011;10922;45.572;10.002;2023-02-22T14:35:18;96.93;;;61.63;;
21521;SDS011;10922;45.572;10.002;2023-02-22T14:37:53;98.53;;;62.05;;
21521;SDS011;10922;45.572;10.002;2023-02-22T14:40:25;96.20;;;60.70;;
21521;SDS011;10922;45.572;10.002;2023-02-22T14:43:05;98.20;;;60.28;;
21521;SDS011;10922;45.572;10.002;2023-02-22T14:45:33;94.77;;;59.70;;
21521;SDS011;10922;45.572;10.002;2023-02-22T14:48:12;93.60;;;58.88;;
21521;SDS011;10922;45.572;10.002;2023-02-22T14:51:22;93.18;;;58.47;;
21521;SDS011;10922;45.572;10.002;2023-02-22T14:53:57;91.95;;;57.88;;
21521;SDS011;10922;45.572;10.002;2023-02-22T14:56:45;87.63;;;54.40;;
21521;SDS011;10922;45.572;10.002;2023-02-22T14:59:23;90.38;;;55.55;;
21521;SDS011;10922;45.572;10.002;2023-02-22T15:02:02;100.18;;;55.63;;
21521;SDS011;10922;45.572;10.002;2023-02-22T15:04:30;80.60;;;53.00;;
21521;SDS011;10922;45.572;10.002;2023-02-22T15:06:57;84.43;;;53.65;;
21521;SDS011;10922;45.572;10.002;2023-02-22T15:09:26;82.80;;;53.42;;
21521;SDS011;10922;45.572;10.002;2023-02-22T15:14:22;80.40;;;51.50;;
21521;SDS011;10922;45.572;10.002;2023-02-22T15:16:53;80.88;;;51.53;;
21521;SDS011;10922;45.572;10.002;2023-02-22T15:19:32;80.50;;;51.65;;
21521;SDS011;10922;45.572;10.002;2023-02-22T15:22:01;80.18;;;51.08;;
21521;SDS011;10922;45.572;10.002;2023-02-22T15:24:28;87.70;;;53.92;;
21521;SDS011;10922;45.572;10.002;2023-02-22T15:27:06;85.10;;;51.33;;
21521;SDS011;10922;45.572;10.002;2023-02-22T15:29:40;79.25;;;49.72;;
21521;SDS011;10922;45.572;10.002;2023-02-22T15:32:28;75.78;;;49.08;;
21521;SDS011;10922;45.572;10.002;2023-02-22T15:37:57;79.97;;;51.92;;
21521;SDS011;10922;45.572;10.002;2023-02-22T15:40:28;77.57;;;50.10;;
21521;SDS011;10922;45.572;10.002;2023-02-22T15:43:06;79.93;;;50.97;;
21521;SDS011;10922;45.572;10.002;2023-02-22T15:45:49;79.63;;;49.78;;
21521;SDS011;10922;45.572;10.002;2023-02-22T15:48:15;80.75;;;52.00;;
21521;SDS011;10922;45.572;10.002;2023-02-22T15:53:35;77.63;;;50.78;;
21521;SDS011;10922;45.572;10.002;2023-02-22T15:56:04;78.38;;;51.15;;
21521;SDS011;10922;45.572;10.002;2023-02-22T15:58:42;81.65;;;50.85;;
21521;SDS011;10922;45.572;10.002;2023-02-22T16:01:11;81.07;;;52.28;;
21521;SDS011;10922;45.572;10.002;2023-02-22T16:06:19;81.60;;;50.92;;
21521;SDS011;10922;45.572;10.002;2023-02-22T16:08:49;80.85;;;52.13;;
21521;SDS011;10922;45.572;10.002;2023-02-22T16:11:26;78.50;;;50.53;;
21521;SDS011;10922;45.572;10.002;2023-02-22T16:13:56;83.05;;;51.53;;
21521;SDS011;10922;45.572;10.002;2023-02-22T16:16:43;86.53;;;55.05;;
21521;SDS011;10922;45.572;10.002;2023-02-22T16:32:49;88.00;;;56.20;;
21521;SDS011;10922;45.572;10.002;2023-02-22T16:35:15;89.70;;;54.97;;
21521;SDS011;10922;45.572;10.002;2023-02-22T16:40:18;87.00;;;55.05;;
21521;SDS011;10922;45.572;10.002;2023-02-22T16:42:51;87.68;;;53.92;;
21521;SDS011;10922;45.572;10.002;2023-02-22T16:45:17;87.20;;;55.50;;
21521;SDS011;10922;45.572;10.002;2023-02-22T16:47:44;87.15;;;54.13;;
21521;SDS011;10922;45.572;10.002;2023-02-22T16:50:10;85.45;;;54.85;;
21521;SDS011;10922;45.572;10.002;2023-02-22T16:52:40;89.00;;;55.92;;
21521;SDS011;10922;45.572;10.002;2023-02-22T16:55:10;85.63;;;54.70;;
21521;SDS011;10922;45.572;10.002;2023-02-22T16:57:38;86.10;;;55.20;;
21521;SDS011;10922;45.572;10.002;2023-02-22T17:00:06;91.60;;;56.35;;
21521;SDS011;10922;45.572;10.002;2023-02-22T17:02:39;88.50;;;55.83;;
21521;SDS011;10922;45.572;10.002;2023-02-22T17:05:05;87.13;;;55.22;;
21521;SDS011;10922;45.572;10.002;2023-02-22T17:07:31;119.13;;;77.25;;
21521;SDS011;10922;45.572;10.002;2023-02-22T17:09:58;139.70;;;87.32;;
21521;SDS011;10922;45.572;10.002;2023-02-22T17:12:28;135.50;;;90.73;;
21521;SDS011;10922;45.572;10.002;2023-02-22T17:14:57;142.23;;;92.88;;
21521;SDS011;10922;45.572;10.002;2023-02-22T17:17:23;137.38;;;88.28;;